You are not logged in, Click here to log in
ICAO: RJOR Country: 鳥取縣鳥取市
Latitude: 35.5301 Longitude: 134.167
Total Arrivals: 2 Total Departures: 2
Latest Arrival: GC10 (RJNO-RJOR)冠鈞. 黃 Latest Departure: GC10 (RJOR-RJBD)冠鈞. 黃
Scenery:
METAR : RJOR 151200Z 02009KT 9999 FEW020 SCT050 26/22 Q1008

鳥取沙丘柯南機場TTJ